West Point, AR (72178)

9:46 AM CDT on August 03, 2015 (GMT -0500)
Searcy Municipal | | Change Station
CLOSE
Current Station
Airport
Location: Searcy,
Elevation: 266 ft
Nearby Weather Stations
Active Advisory: Flood Warning

Elev 266 ft 35.21 °N, 91.74 °W | Updated 50 minutes ago

Clear
Clear
84 °F
Feels Like 90 °F
N
0
Wind Variable Wind from North

Today
High -- | Low -- °F
--% Chance of Precip.
Yesterday
High -- | Low -- °F
Precip. -- in
6:16 AM 8:07 PM
Waning Gibbous, 86% visible
Pressure 29.96 in
Visibility 10.0 miles
Clouds Few 9500 ft
Heat Index 90 °F
Dew Point 72 °F
Humidity 67%
Rainfall 0.00 in
Snow Depth Not available.
UV 3 out of 12
Pollen 5.20 out of 12
Air Quality Not available.
Flu Activity Not available.
METAR KSRC 031356Z AUTO 00000KT 10SM FEW095 29/22 A2996 RMK AO2 SLP146 T02890222 TSNO

More Conditions Fewer Conditions

Pressure 29.96 in
Visibility 10.0 miles
Clouds Few 9500 ft
Heat Index 90 °F
Dew Point 72 °F
Humidity 67%
Rainfall 0.00 in
Snow Depth Not available.
UV 3 out of 12
Pollen 5.20 out of 12
Air Quality Not available.
Flu Activity Not available.
METAR KSRC 031356Z AUTO 00000KT 10SM FEW095 29/22 A2996 RMK AO2 SLP146 T02890222 TSNO

More Conditions Fewer Conditions

10-Day Weather Forecast

×

Almanac

Astronomy

Aug. 03, 2015 Rise Set
Actual Time
Civil Twilight
Nautical Twilight
Astronomical Twilight
Moon
Length of Visible Light
Length of Day
Tomorrow will be .
, % of the Moon is Illuminated

Today's Extremes

State Highs State Lows

Community

WunderPhotos

Upload Photos

1,843,639 photos uploaded!

WunderBlogs® & News

Nearby

Air Quality

  Air Quality AQ Index Pollutant
Not available.

Snow Depth

Station Depth Elevation

Earthquake Activity

City Distance Mag. Time & Date
Minimum magnitude displayed is 2.5.

Coastal Water Temperatures

Place Temperature

Stations

Nearby Weather Stations

Station Location Temp. Windchill Dew Point Humidity Wind Precip. Elev Updated Type
                   
Flood Warning
Statement as of 7:37 PM CDT on August 02, 2015

The Flood Warning continues for
the White River at Augusta.
* Until further notice... or until the warning is cancelled.
* At 7:00 PM Sunday the stage was 26.3 feet.
* Minor flooding is occurring and minor flooding is forecast.
* Flood stage is 26.0 feet.
* Forecast... the river will continue rising to near 26.8 feet by
Thursday morning.
* Impacts at 26.0 feet... farm ground along the river in white and
Woodruff counties begin to flood. Seasonal agricultural impacts.


             Fld observed forecast 7 am
location stg stg day time Mon Tue Wed Thu Fri

Lower White River
Augusta 26 26.3 sun 07 PM 26.3 26.5 26.6 26.8 26.8




Lat... Lon 3514 9152 3525 9146 3537 9150 3534 9136
3521 9133 3515 9137